createdAt,value
2017-03-29T03:00:44.999Z,1019.57
2017-03-29T03:01:10.557Z,1019.57
2017-03-29T03:01:36.122Z,1019.57
2017-03-29T03:02:01.671Z,1019.56
2017-03-29T03:02:27.242Z,1019.6
2017-03-29T03:02:52.877Z,1019.55
2017-03-29T03:03:18.539Z,1019.59
2017-03-29T03:03:44.114Z,1019.59
2017-03-29T03:04:09.765Z,1019.54
2017-03-29T03:04:35.413Z,1019.52
2017-03-29T03:05:00.906Z,1019.55
2017-03-29T03:05:26.462Z,1019.52
2017-03-29T03:05:52.017Z,1019.56
2017-03-29T03:06:17.613Z,1019.57
2017-03-29T03:06:43.183Z,1019.58
2017-03-29T03:07:08.870Z,1019.47
2017-03-29T03:07:34.530Z,1019.51
2017-03-29T03:08:00.082Z,1019.55
2017-03-29T03:08:25.802Z,1019.53
2017-03-29T03:08:51.349Z,1019.58
2017-03-29T03:09:16.999Z,1019.51
2017-03-29T03:09:42.689Z,1019.48
2017-03-29T03:10:08.260Z,1019.5
2017-03-29T03:10:33.826Z,1019.51
2017-03-29T03:10:59.482Z,1019.46
2017-03-29T03:11:25.063Z,1019.51
2017-03-29T03:11:50.610Z,1019.44
2017-03-29T03:12:16.161Z,1019.43
2017-03-29T03:12:41.733Z,1019.45
2017-03-29T03:13:07.280Z,1019.45
2017-03-29T03:13:32.841Z,1019.43
2017-03-29T03:13:58.405Z,1019.47
2017-03-29T03:14:23.965Z,1019.44
2017-03-29T03:14:49.510Z,1019.45
2017-03-29T03:15:15.193Z,1019.47
2017-03-29T03:15:40.746Z,1019.47
2017-03-29T03:16:06.319Z,1019.53
2017-03-29T03:16:31.996Z,1019.47
2017-03-29T03:16:57.548Z,1019.52
2017-03-29T03:17:23.087Z,1019.51
2017-03-29T03:17:48.642Z,1019.53
2017-03-29T03:18:14.200Z,1019.51
2017-03-29T03:18:39.742Z,1019.52
2017-03-29T03:19:05.289Z,1019.48
2017-03-29T03:19:30.837Z,1019.49
2017-03-29T03:19:56.408Z,1019.5
2017-03-29T03:20:21.973Z,1019.45
2017-03-29T03:20:47.532Z,1019.41
2017-03-29T03:21:13.100Z,1019.51
2017-03-29T03:21:38.671Z,1019.47
2017-03-29T03:22:04.237Z,1019.49
2017-03-29T03:22:29.797Z,1019.5
2017-03-29T03:22:55.381Z,1019.52
2017-03-29T03:23:20.935Z,1019.51
2017-03-29T03:23:46.487Z,1019.55
2017-03-29T03:24:12.036Z,1019.56
2017-03-29T03:24:37.714Z,1019.57
2017-03-29T03:25:03.280Z,1019.57
2017-03-29T03:25:28.848Z,1019.57
2017-03-29T03:25:54.414Z,1019.58
2017-03-29T03:26:19.999Z,1019.58
2017-03-29T03:26:45.568Z,1019.61
2017-03-29T03:27:11.122Z,1019.62
2017-03-29T03:27:36.686Z,1019.68
2017-03-29T03:28:02.255Z,1019.65
2017-03-29T03:28:27.812Z,1019.63
2017-03-29T03:28:53.365Z,1019.62
2017-03-29T03:29:18.919Z,1019.62
2017-03-29T03:29:44.490Z,1019.57
2017-03-29T03:30:10.042Z,1019.59
2017-03-29T03:30:35.574Z,1019.57
2017-03-29T03:31:01.228Z,1019.6
2017-03-29T03:31:26.801Z,1019.59
2017-03-29T03:31:52.369Z,1019.57
2017-03-29T03:32:17.927Z,1019.52
2017-03-29T03:32:43.497Z,1019.54
2017-03-29T03:33:09.060Z,1019.52
2017-03-29T03:33:34.629Z,1019.54
2017-03-29T03:34:00.197Z,1019.54
2017-03-29T03:34:25.769Z,1019.51
2017-03-29T03:34:51.328Z,1019.54
2017-03-29T03:35:16.901Z,1019.52
2017-03-29T03:35:42.569Z,1019.47
2017-03-29T03:36:08.150Z,1019.53
2017-03-29T03:36:33.700Z,1019.49
2017-03-29T03:36:59.247Z,1019.53
2017-03-29T03:37:24.887Z,1019.49
2017-03-29T03:37:50.446Z,1019.46
2017-03-29T03:38:16.021Z,1019.52
2017-03-29T03:38:41.559Z,1019.54
2017-03-29T03:39:07.108Z,1019.52
2017-03-29T03:39:32.667Z,1019.52
2017-03-29T03:39:58.200Z,1019.48
2017-03-29T03:40:23.771Z,1019.55
2017-03-29T03:40:49.297Z,1019.52
2017-03-29T03:41:14.830Z,1019.6
2017-03-29T03:41:40.384Z,1019.64
2017-03-29T03:42:05.913Z,1019.59
2017-03-29T03:42:31.458Z,1019.58
2017-03-29T03:42:57.031Z,1019.63
2017-03-29T03:43:22.573Z,1019.63
2017-03-29T03:43:48.131Z,1019.62
2017-03-29T03:44:13.704Z,1019.62
2017-03-29T03:44:39.263Z,1019.58
2017-03-29T03:45:04.809Z,1019.56
2017-03-29T03:45:30.440Z,1019.51
2017-03-29T03:45:55.999Z,1019.5
2017-03-29T03:46:21.662Z,1019.49
2017-03-29T03:46:47.240Z,1019.53
2017-03-29T03:47:12.794Z,1019.52
2017-03-29T03:47:38.375Z,1019.55
2017-03-29T03:48:04.056Z,1019.56
2017-03-29T03:48:29.612Z,1019.56
2017-03-29T03:48:55.157Z,1019.57
2017-03-29T03:49:20.809Z,1019.55
2017-03-29T03:50:29.430Z,1019.55
2017-03-29T03:50:54.993Z,1019.56
2017-03-29T03:51:20.567Z,1019.57
2017-03-29T03:51:46.132Z,1019.53
2017-03-29T03:52:11.755Z,1019.6
2017-03-29T03:52:37.390Z,1019.63
2017-03-29T03:53:03.170Z,1019.61
2017-03-29T03:53:28.730Z,1019.62
2017-03-29T03:53:54.309Z,1019.62
2017-03-29T03:54:19.897Z,1019.63
2017-03-29T03:54:45.482Z,1019.66
2017-03-29T03:55:11.031Z,1019.66
2017-03-29T03:55:36.608Z,1019.65
2017-03-29T03:56:02.193Z,1019.65
2017-03-29T03:56:27.743Z,1019.64
2017-03-29T03:56:53.295Z,1019.68
2017-03-29T03:57:18.858Z,1019.66
2017-03-29T03:57:44.419Z,1019.62
2017-03-29T03:58:09.991Z,1019.59
2017-03-29T03:58:35.550Z,1019.63
2017-03-29T03:59:01.111Z,1019.61
2017-03-29T03:59:26.701Z,1019.63
2017-03-29T03:59:52.261Z,1019.62
2017-03-29T04:00:17.825Z,1019.67
2017-03-29T04:00:43.392Z,1019.61
2017-03-29T04:01:08.959Z,1019.65
2017-03-29T04:01:34.530Z,1019.54
2017-03-29T04:02:00.077Z,1019.57
2017-03-29T04:02:25.773Z,1019.54
2017-03-29T04:02:51.371Z,1019.51
2017-03-29T04:03:16.941Z,1019.53
2017-03-29T04:03:42.578Z,1019.55
2017-03-29T04:04:08.140Z,1019.52
2017-03-29T04:04:33.765Z,1019.55
2017-03-29T04:04:59.339Z,1019.51
2017-03-29T04:05:25.006Z,1019.56
2017-03-29T04:05:50.581Z,1019.56
2017-03-29T04:06:16.151Z,1019.51
2017-03-29T04:06:41.814Z,1019.49
2017-03-29T04:07:07.400Z,1019.57
2017-03-29T04:07:32.963Z,1019.59
2017-03-29T04:07:58.522Z,1019.63
2017-03-29T04:08:24.101Z,1019.65
2017-03-29T04:08:49.659Z,1019.57
2017-03-29T04:09:15.218Z,1019.55
2017-03-29T04:09:40.769Z,1019.57
2017-03-29T04:10:06.347Z,1019.57
2017-03-29T04:10:31.945Z,1019.58
2017-03-29T04:10:57.526Z,1019.58
2017-03-29T04:11:23.098Z,1019.58
2017-03-29T04:11:48.668Z,1019.57
2017-03-29T04:12:14.247Z,1019.62
2017-03-29T04:12:39.813Z,1019.6
2017-03-29T04:13:05.371Z,1019.56
2017-03-29T04:13:30.931Z,1019.6
2017-03-29T04:13:56.487Z,1019.59
2017-03-29T04:14:22.050Z,1019.62
2017-03-29T04:14:47.608Z,1019.58
2017-03-29T04:15:13.171Z,1019.65
2017-03-29T04:15:38.736Z,1019.56
2017-03-29T04:16:04.299Z,1019.55
2017-03-29T04:16:29.881Z,1019.55
2017-03-29T04:16:55.442Z,1019.54
2017-03-29T04:17:21.010Z,1019.54
2017-03-29T04:17:46.593Z,1019.52
2017-03-29T04:18:12.147Z,1019.49
2017-03-29T04:18:37.716Z,1019.52
2017-03-29T04:19:03.292Z,1019.49
2017-03-29T04:19:28.841Z,1019.52
2017-03-29T04:19:54.454Z,1019.54
2017-03-29T04:20:20.080Z,1019.54
2017-03-29T04:20:45.648Z,1019.48
2017-03-29T04:21:11.216Z,1019.54
2017-03-29T04:21:36.798Z,1019.56
2017-03-29T04:22:02.367Z,1019.59
2017-03-29T04:22:27.921Z,1019.61
2017-03-29T04:22:53.478Z,1019.55
2017-03-29T04:23:19.032Z,1019.59
2017-03-29T04:23:44.596Z,1019.58
2017-03-29T04:24:10.238Z,1019.57
2017-03-29T04:24:35.856Z,1019.57
2017-03-29T04:25:01.422Z,1019.57
2017-03-29T04:25:26.990Z,1019.63
2017-03-29T04:25:52.551Z,1019.57
2017-03-29T04:26:18.115Z,1019.57
2017-03-29T04:26:43.691Z,1019.66
2017-03-29T04:27:09.262Z,1019.62
2017-03-29T04:27:34.826Z,1019.59
2017-03-29T04:28:00.429Z,1019.62
2017-03-29T04:28:25.989Z,1019.6
2017-03-29T04:28:51.551Z,1019.59
2017-03-29T04:29:17.123Z,1019.62
2017-03-29T04:29:42.700Z,1019.6
2017-03-29T04:30:08.261Z,1019.57
2017-03-29T04:30:33.829Z,1019.61
2017-03-29T04:30:59.399Z,1019.63
2017-03-29T04:31:24.954Z,1019.57
2017-03-29T04:31:50.519Z,1019.62
2017-03-29T04:32:16.166Z,1019.66
2017-03-29T04:32:41.733Z,1019.62
2017-03-29T04:33:07.300Z,1019.61
2017-03-29T04:33:32.948Z,1019.66
2017-03-29T04:33:58.519Z,1019.64
2017-03-29T04:34:24.087Z,1019.64
2017-03-29T04:34:49.655Z,1019.72
2017-03-29T04:35:15.230Z,1019.73
2017-03-29T04:35:40.795Z,1019.72
2017-03-29T04:36:06.362Z,1019.73
2017-03-29T04:36:31.908Z,1019.74
2017-03-29T04:36:57.458Z,1019.73
2017-03-29T04:37:23.029Z,1019.68
2017-03-29T04:37:48.612Z,1019.74
2017-03-29T04:38:14.301Z,1019.69
2017-03-29T04:38:39.873Z,1019.75
2017-03-29T04:39:05.432Z,1019.75
2017-03-29T04:39:30.998Z,1019.68
2017-03-29T04:39:56.561Z,1019.72
2017-03-29T04:40:22.120Z,1019.76
2017-03-29T04:40:47.715Z,1019.72
2017-03-29T04:41:13.298Z,1019.68
2017-03-29T04:41:38.950Z,1019.73
2017-03-29T04:42:04.543Z,1019.73
2017-03-29T04:42:30.118Z,1019.75
2017-03-29T04:42:55.705Z,1019.77
2017-03-29T04:43:21.309Z,1019.78
2017-03-29T04:43:46.857Z,1019.78
2017-03-29T04:44:12.425Z,1019.78
2017-03-29T04:44:38.087Z,1019.77
2017-03-29T04:45:03.671Z,1019.8
2017-03-29T04:45:29.242Z,1019.78
2017-03-29T04:45:54.818Z,1019.79
2017-03-29T04:46:20.398Z,1019.8
2017-03-29T04:46:45.984Z,1019.77
2017-03-29T04:47:11.542Z,1019.8
2017-03-29T04:47:37.123Z,1019.81
2017-03-29T04:48:02.714Z,1019.75
2017-03-29T04:48:28.296Z,1019.76
2017-03-29T04:48:53.846Z,1019.74
2017-03-29T04:49:19.434Z,1019.73
2017-03-29T04:49:45.128Z,1019.79
2017-03-29T04:50:10.682Z,1019.75
2017-03-29T04:50:36.239Z,1019.77
2017-03-29T04:51:01.801Z,1019.77
2017-03-29T04:51:27.388Z,1019.78
2017-03-29T04:51:52.984Z,1019.76
2017-03-29T04:52:18.547Z,1019.77
2017-03-29T04:52:44.112Z,1019.8
2017-03-29T04:53:09.679Z,1019.8
2017-03-29T04:53:35.280Z,1019.76
2017-03-29T04:54:00.840Z,1019.76
2017-03-29T04:54:26.417Z,1019.88
2017-03-29T04:54:51.986Z,1019.95
2017-03-29T04:55:17.571Z,1019.9
2017-03-29T04:55:43.144Z,1019.89
2017-03-29T04:56:08.729Z,1019.99
2017-03-29T04:56:34.288Z,1019.97
2017-03-29T04:56:59.868Z,1019.86
2017-03-29T04:57:25.430Z,1019.88
2017-03-29T04:57:50.998Z,1019.86
2017-03-29T04:58:16.560Z,1019.96
2017-03-29T04:58:42.178Z,1019.95
2017-03-29T04:59:07.738Z,1020.08
2017-03-29T04:59:33.308Z,1020.01
2017-03-29T04:59:58.868Z,1019.98
2017-03-29T05:00:24.440Z,1019.98
2017-03-29T05:00:50.005Z,1019.9
2017-03-29T05:01:15.600Z,1019.97
2017-03-29T05:01:41.179Z,1019.93
2017-03-29T05:02:06.750Z,1020
2017-03-29T05:02:32.318Z,1020.08
2017-03-29T05:02:57.898Z,1019.9
2017-03-29T05:03:23.466Z,1019.95
2017-03-29T05:03:49.020Z,1019.97
2017-03-29T05:04:14.591Z,1019.96
2017-03-29T05:04:40.170Z,1019.89
2017-03-29T05:05:05.756Z,1019.97
2017-03-29T05:05:31.291Z,1019.99
2017-03-29T05:05:56.869Z,1020.08
2017-03-29T05:06:22.455Z,1020.03
2017-03-29T05:06:48.027Z,1020.04
2017-03-29T05:07:13.589Z,1020.05
2017-03-29T05:07:39.154Z,1020.13
2017-03-29T05:08:04.741Z,1020.12
2017-03-29T05:08:30.302Z,1020.01
2017-03-29T05:08:55.861Z,1020.06
2017-03-29T05:09:21.431Z,1019.91
2017-03-29T05:09:47.000Z,1019.89
2017-03-29T05:10:12.558Z,1019.87
2017-03-29T05:10:38.128Z,1019.85
2017-03-29T05:11:03.768Z,1019.83
2017-03-29T05:11:29.327Z,1019.85
2017-03-29T05:11:54.886Z,1019.77
2017-03-29T05:13:03.744Z,1019.82
2017-03-29T05:13:29.298Z,1019.82
2017-03-29T05:13:54.914Z,1019.77
2017-03-29T05:14:20.480Z,1019.8
2017-03-29T05:14:46.036Z,1019.78
2017-03-29T05:15:11.590Z,1019.75
2017-03-29T05:15:37.151Z,1019.76
2017-03-29T05:16:02.695Z,1019.73
2017-03-29T05:16:28.277Z,1019.74
2017-03-29T05:16:53.810Z,1019.76
2017-03-29T05:17:19.368Z,1019.82
2017-03-29T05:17:45.058Z,1019.83
2017-03-29T05:18:10.642Z,1019.78
2017-03-29T05:18:36.193Z,1019.82
2017-03-29T05:19:01.868Z,1019.87
2017-03-29T05:19:27.440Z,1019.84
2017-03-29T05:19:53.001Z,1019.88
2017-03-29T05:20:18.595Z,1019.88
2017-03-29T05:20:44.237Z,1019.87
2017-03-29T05:21:09.791Z,1019.89
2017-03-29T05:21:35.327Z,1019.82
2017-03-29T05:22:00.904Z,1019.86
2017-03-29T05:22:26.464Z,1019.85
2017-03-29T05:22:52.055Z,1019.82
2017-03-29T05:23:17.610Z,1019.82
2017-03-29T05:23:43.174Z,1019.85
2017-03-29T05:24:08.732Z,1019.86
2017-03-29T05:24:34.333Z,1019.82
2017-03-29T05:25:00.746Z,1019.83
2017-03-29T05:25:26.419Z,1019.85
2017-03-29T05:25:53.859Z,1019.82
2017-03-29T05:26:19.418Z,1019.84
2017-03-29T05:26:45.329Z,1019.86
2017-03-29T05:27:10.871Z,1019.83
2017-03-29T05:27:36.411Z,1019.9
2017-03-29T05:28:01.974Z,1019.92
2017-03-29T05:28:27.529Z,1019.97
2017-03-29T05:28:53.101Z,1019.93
2017-03-29T05:29:18.670Z,1019.95
2017-03-29T05:29:44.240Z,1019.97
2017-03-29T05:30:09.818Z,1019.97
2017-03-29T05:30:35.377Z,1019.96
2017-03-29T05:31:33.880Z,1019.93
2017-03-29T05:31:59.480Z,1019.9
2017-03-29T05:32:25.066Z,1019.95
2017-03-29T05:32:50.628Z,1020
2017-03-29T05:33:16.305Z,1019.99
2017-03-29T05:33:41.901Z,1019.98
2017-03-29T05:34:07.452Z,1019.97
2017-03-29T05:34:33.046Z,1020
2017-03-29T05:34:58.616Z,1020.01
2017-03-29T05:35:24.187Z,1019.94
2017-03-29T05:35:49.875Z,1019.97
2017-03-29T05:36:15.472Z,1019.96
2017-03-29T05:36:41.118Z,1019.95
2017-03-29T05:37:06.669Z,1019.97
2017-03-29T05:37:32.242Z,1019.95
2017-03-29T05:37:57.820Z,1019.98
2017-03-29T05:38:23.379Z,1019.92
2017-03-29T05:38:48.963Z,1019.95
2017-03-29T05:39:14.535Z,1019.99
2017-03-29T05:39:40.093Z,1020
2017-03-29T05:40:05.675Z,1020.03
2017-03-29T05:40:31.229Z,1020.05
2017-03-29T05:40:56.820Z,1019.99
2017-03-29T05:41:22.379Z,1019.99
2017-03-29T05:41:47.950Z,1020
2017-03-29T05:42:13.517Z,1020
2017-03-29T05:42:39.099Z,1020.01
2017-03-29T05:43:04.702Z,1020
2017-03-29T05:43:30.265Z,1020.09
2017-03-29T05:43:56.102Z,1020.09
2017-03-29T05:44:22.370Z,1020.05
2017-03-29T05:44:48.855Z,1020.09
2017-03-29T05:45:14.722Z,1020.07
2017-03-29T05:45:40.328Z,1020.06
2017-03-29T05:46:05.873Z,1020.11
2017-03-29T05:46:31.439Z,1020.07
2017-03-29T05:46:56.987Z,1020.08
2017-03-29T05:47:22.554Z,1020.14
2017-03-29T05:47:48.151Z,1020.12
2017-03-29T05:48:13.687Z,1020.06
2017-03-29T05:48:39.248Z,1020.1
2017-03-29T05:49:04.800Z,1020.1
2017-03-29T05:49:30.353Z,1020.1
2017-03-29T05:49:55.957Z,1020.04
2017-03-29T05:50:21.495Z,1020.14
2017-03-29T05:50:47.108Z,1020.16
2017-03-29T05:51:12.646Z,1020.12
2017-03-29T05:51:38.201Z,1020.14
2017-03-29T05:52:03.793Z,1020.11
2017-03-29T05:52:29.360Z,1020.16
2017-03-29T05:52:54.968Z,1020.14
2017-03-29T05:53:20.531Z,1020.13
2017-03-29T05:53:46.085Z,1020.12
2017-03-29T05:54:11.644Z,1020.1
2017-03-29T05:54:37.210Z,1020.12
2017-03-29T05:55:02.882Z,1020.16
2017-03-29T05:55:28.458Z,1020.21
2017-03-29T05:55:54.010Z,1020.28
2017-03-29T05:56:19.568Z,1020.46
2017-03-29T05:56:45.128Z,1020.27
2017-03-29T05:57:10.706Z,1020.34
2017-03-29T05:57:36.265Z,1020.15
2017-03-29T05:58:01.798Z,1020.17
2017-03-29T05:58:27.381Z,1020.34
2017-03-29T05:58:52.948Z,1020.46
2017-03-29T05:59:18.516Z,1020.21
2017-03-29T05:59:44.085Z,1020.34
2017-03-29T06:00:09.643Z,1020.38
2017-03-29T06:01:23.197Z,1020.19
2017-03-29T06:01:48.839Z,1020.12
2017-03-29T06:02:14.388Z,1020.07
2017-03-29T06:02:39.946Z,1020.13
2017-03-29T06:03:53.461Z,1020.12
2017-03-29T06:04:19.018Z,1020.08
2017-03-29T06:04:44.567Z,1020.14
2017-03-29T06:05:10.143Z,1020.09
2017-03-29T06:05:35.769Z,1020.12
2017-03-29T06:06:01.306Z,1020.11
2017-03-29T06:06:26.883Z,1020.11
2017-03-29T06:06:52.401Z,1020.06
2017-03-29T06:07:18.067Z,1020.13
2017-03-29T06:07:43.629Z,1020.05
2017-03-29T06:08:09.179Z,1020.05
2017-03-29T06:08:34.767Z,1019.99
2017-03-29T06:09:00.439Z,1019.98
2017-03-29T06:09:26.012Z,1019.98
2017-03-29T06:09:51.633Z,1020.02
2017-03-29T06:10:17.189Z,1020.05
2017-03-29T06:10:42.735Z,1020.06
2017-03-29T06:11:08.321Z,1020.01
2017-03-29T06:11:34.450Z,1020.03
2017-03-29T06:12:00.022Z,1019.99
2017-03-29T06:12:25.561Z,1019.98
2017-03-29T06:12:51.115Z,1020.07
2017-03-29T06:13:16.707Z,1020.11
2017-03-29T06:13:42.275Z,1020.06
2017-03-29T06:14:07.818Z,1020.08
2017-03-29T06:14:33.346Z,1020.12
2017-03-29T06:14:58.898Z,1020.15
2017-03-29T06:15:24.459Z,1020.14
2017-03-29T06:15:50.084Z,1020.19
2017-03-29T06:16:15.659Z,1020.2
2017-03-29T06:16:41.196Z,1020.18
2017-03-29T06:17:06.769Z,1020.16
2017-03-29T06:17:32.559Z,1020.17
2017-03-29T06:17:58.366Z,1020.2
2017-03-29T06:18:23.917Z,1020.24
2017-03-29T06:18:49.462Z,1020.27
2017-03-29T06:19:15.124Z,1020.2
2017-03-29T06:19:40.688Z,1020.21
2017-03-29T06:20:06.227Z,1020.19
2017-03-29T06:20:31.782Z,1020.21
2017-03-29T06:20:57.333Z,1020.2
2017-03-29T06:21:22.908Z,1020.23
2017-03-29T06:21:48.498Z,1020.22
2017-03-29T06:22:14.018Z,1020.2
2017-03-29T06:22:39.556Z,1020.19
2017-03-29T06:23:05.099Z,1020.14
2017-03-29T06:23:30.636Z,1020.17
2017-03-29T06:23:56.173Z,1020.26
2017-03-29T06:24:21.727Z,1020.27
2017-03-29T06:24:47.287Z,1020.2
2017-03-29T06:25:12.826Z,1020.23
2017-03-29T06:25:38.381Z,1020.23
2017-03-29T06:26:03.939Z,1020.26
2017-03-29T06:26:29.488Z,1020.24
2017-03-29T06:26:55.062Z,1020.24
2017-03-29T06:27:20.623Z,1020.23
2017-03-29T06:27:46.166Z,1020.27
2017-03-29T06:28:11.762Z,1020.25
2017-03-29T06:28:37.361Z,1020.25
2017-03-29T06:29:02.929Z,1020.26
2017-03-29T06:29:28.500Z,1020.27
2017-03-29T06:29:54.062Z,1020.26
2017-03-29T06:30:19.640Z,1020.24
2017-03-29T06:31:18.289Z,1020.25
2017-03-29T06:31:43.845Z,1020.24
2017-03-29T06:32:09.427Z,1020.26
2017-03-29T06:32:34.978Z,1020.33
2017-03-29T06:33:00.540Z,1020.22
2017-03-29T06:33:26.085Z,1020.17
2017-03-29T06:33:51.630Z,1020.21
2017-03-29T06:34:17.289Z,1020.25
2017-03-29T06:34:42.825Z,1020.27
2017-03-29T06:35:08.391Z,1020.25
2017-03-29T06:35:33.947Z,1020.29
2017-03-29T06:35:59.510Z,1020.23
2017-03-29T06:36:25.052Z,1020.29
2017-03-29T06:36:50.614Z,1020.24
2017-03-29T06:37:16.191Z,1020.29
2017-03-29T06:37:41.789Z,1020.33
2017-03-29T06:38:07.424Z,1020.28
2017-03-29T06:38:32.971Z,1020.32
2017-03-29T06:38:58.506Z,1020.38
2017-03-29T06:39:24.246Z,1020.31
2017-03-29T06:39:49.878Z,1020.36
2017-03-29T06:40:15.432Z,1020.3
2017-03-29T06:40:41.082Z,1020.29
2017-03-29T06:41:06.633Z,1020.32
2017-03-29T06:41:32.192Z,1020.32
2017-03-29T06:41:57.809Z,1020.32
2017-03-29T06:42:23.362Z,1020.37
2017-03-29T06:42:48.926Z,1020.33
2017-03-29T06:43:14.515Z,1020.34
2017-03-29T06:43:40.074Z,1020.34
2017-03-29T06:44:05.680Z,1020.35
2017-03-29T06:44:31.225Z,1020.36
2017-03-29T06:44:56.757Z,1020.33
2017-03-29T06:45:22.320Z,1020.34
2017-03-29T06:45:47.885Z,1020.33
2017-03-29T06:46:13.659Z,1020.38
2017-03-29T06:46:39.230Z,1020.42
2017-03-29T06:47:04.850Z,1020.39
2017-03-29T06:47:30.419Z,1020.43
2017-03-29T06:47:55.970Z,1020.43
2017-03-29T06:48:21.558Z,1020.41
2017-03-29T06:48:47.136Z,1020.45
2017-03-29T06:49:12.699Z,1020.46
2017-03-29T06:49:38.262Z,1020.45
2017-03-29T06:50:03.821Z,1020.46
2017-03-29T06:50:29.383Z,1020.5
2017-03-29T06:50:54.941Z,1020.49
2017-03-29T06:51:20.537Z,1020.46
2017-03-29T06:51:46.073Z,1020.5
2017-03-29T06:52:11.647Z,1020.51
2017-03-29T06:52:37.199Z,1020.44
2017-03-29T06:53:02.750Z,1020.49
2017-03-29T06:53:28.411Z,1020.5
2017-03-29T06:53:54.006Z,1020.53
2017-03-29T06:54:19.552Z,1020.53
2017-03-29T06:54:45.134Z,1020.53
2017-03-29T06:55:10.673Z,1020.57
2017-03-29T06:55:36.250Z,1020.53
2017-03-29T06:56:01.795Z,1020.54
2017-03-29T06:56:27.340Z,1020.55
2017-03-29T06:56:52.957Z,1020.54
2017-03-29T06:57:18.515Z,1020.55
2017-03-29T06:57:44.067Z,1020.54
2017-03-29T06:58:09.630Z,1020.55
2017-03-29T06:58:35.221Z,1020.59
2017-03-29T06:59:00.779Z,1020.55
2017-03-29T06:59:26.336Z,1020.46
2017-03-29T06:59:51.889Z,1020.54
2017-03-29T07:00:17.489Z,1020.47
2017-03-29T07:00:43.100Z,1020.49
2017-03-29T07:01:08.656Z,1020.54
2017-03-29T07:01:34.251Z,1020.51
2017-03-29T07:01:59.818Z,1020.52
2017-03-29T07:02:25.519Z,1020.52
2017-03-29T07:02:51.073Z,1020.45
2017-03-29T07:03:16.628Z,1020.42
2017-03-29T07:03:42.252Z,1020.43
2017-03-29T07:04:07.867Z,1020.45
2017-03-29T07:04:33.469Z,1020.46
2017-03-29T07:04:59.063Z,1020.43
2017-03-29T07:05:24.669Z,1020.49
2017-03-29T07:05:50.190Z,1020.46
2017-03-29T07:06:15.748Z,1020.41
2017-03-29T07:06:41.289Z,1020.43
2017-03-29T07:07:06.858Z,1020.45
2017-03-29T07:07:32.414Z,1020.47
2017-03-29T07:07:57.967Z,1020.44
2017-03-29T07:08:23.526Z,1020.36
2017-03-29T07:08:49.074Z,1020.37
2017-03-29T07:09:14.691Z,1020.41
2017-03-29T07:09:40.243Z,1020.4
2017-03-29T07:10:05.840Z,1020.41
2017-03-29T07:10:31.392Z,1020.46
2017-03-29T07:10:56.977Z,1020.5
2017-03-29T07:11:22.686Z,1020.5
2017-03-29T07:11:48.240Z,1020.5
2017-03-29T07:12:13.843Z,1020.52
2017-03-29T07:12:39.415Z,1020.49
2017-03-29T07:13:05.000Z,1020.52
2017-03-29T07:13:30.680Z,1020.55
2017-03-29T07:13:56.229Z,1020.5
2017-03-29T07:14:21.789Z,1020.54
2017-03-29T07:14:47.337Z,1020.55
2017-03-29T07:15:12.920Z,1020.51
2017-03-29T07:15:38.489Z,1020.5
2017-03-29T07:16:04.090Z,1020.54
2017-03-29T07:16:29.646Z,1020.44
2017-03-29T07:16:55.201Z,1020.5
2017-03-29T07:17:20.807Z,1020.45
2017-03-29T07:17:46.465Z,1020.48
2017-03-29T07:18:12.031Z,1020.51
2017-03-29T07:18:37.600Z,1020.49
2017-03-29T07:19:03.229Z,1020.48
2017-03-29T07:19:28.768Z,1020.46
2017-03-29T07:19:54.325Z,1020.49
2017-03-29T07:20:20.000Z,1020.5
2017-03-29T07:20:45.550Z,1020.47
2017-03-29T07:21:11.098Z,1020.5
2017-03-29T07:21:36.660Z,1020.53
2017-03-29T07:22:02.220Z,1020.42
2017-03-29T07:22:27.781Z,1020.43
2017-03-29T07:22:53.365Z,1020.47
2017-03-29T07:23:18.993Z,1020.56
2017-03-29T07:23:44.567Z,1020.55
2017-03-29T07:24:10.160Z,1020.52
2017-03-29T07:24:35.711Z,1020.57
2017-03-29T07:25:01.309Z,1020.52
2017-03-29T07:25:26.887Z,1020.52
2017-03-29T07:25:52.437Z,1020.54
2017-03-29T07:26:17.993Z,1020.59
2017-03-29T07:26:43.604Z,1020.58
2017-03-29T07:27:09.162Z,1020.64
2017-03-29T07:27:34.707Z,1020.64
2017-03-29T07:28:00.307Z,1020.66
2017-03-29T07:28:25.876Z,1020.69
2017-03-29T07:28:51.423Z,1020.65
2017-03-29T07:29:16.975Z,1020.7
2017-03-29T07:29:42.536Z,1020.7
2017-03-29T07:30:08.085Z,1020.69
2017-03-29T07:30:33.725Z,1020.73
2017-03-29T07:30:59.290Z,1020.69
2017-03-29T07:31:24.885Z,1020.69
2017-03-29T07:31:50.454Z,1020.69
2017-03-29T07:32:16.002Z,1020.72
2017-03-29T07:32:41.575Z,1020.66
2017-03-29T07:33:07.130Z,1020.72
2017-03-29T07:33:32.701Z,1020.64
2017-03-29T07:33:58.332Z,1020.62
2017-03-29T07:34:23.882Z,1020.68
2017-03-29T07:34:49.451Z,1020.68
2017-03-29T07:35:15.011Z,1020.69
2017-03-29T07:35:40.583Z,1020.68
2017-03-29T07:36:06.142Z,1020.65
2017-03-29T07:36:31.704Z,1020.66
2017-03-29T07:36:57.278Z,1020.63
2017-03-29T07:37:22.850Z,1020.63
2017-03-29T07:37:48.397Z,1020.67
2017-03-29T07:40:00.308Z,1020.71
2017-03-29T07:40:25.877Z,1020.73
2017-03-29T07:40:51.459Z,1020.69
2017-03-29T07:41:17.019Z,1020.67
2017-03-29T07:41:42.580Z,1020.66
2017-03-29T07:42:08.123Z,1020.7
2017-03-29T07:42:33.818Z,1020.68
2017-03-29T07:42:59.382Z,1020.79
2017-03-29T07:43:24.938Z,1020.75
2017-03-29T07:43:50.488Z,1020.77
2017-03-29T07:44:16.063Z,1020.82
2017-03-29T07:44:41.682Z,1020.8
2017-03-29T07:45:07.261Z,1020.82
2017-03-29T07:45:32.796Z,1020.79
2017-03-29T07:45:58.340Z,1020.78
2017-03-29T07:46:23.998Z,1020.75
2017-03-29T07:46:49.588Z,1020.81
2017-03-29T07:47:15.136Z,1020.79
2017-03-29T07:47:40.671Z,1020.83
2017-03-29T07:48:06.218Z,1020.79
2017-03-29T07:48:31.762Z,1020.76
2017-03-29T07:48:57.445Z,1020.76
2017-03-29T07:49:23.104Z,1020.78
2017-03-29T07:49:48.667Z,1020.73
2017-03-29T07:50:14.224Z,1020.76
2017-03-29T07:50:39.821Z,1020.74
2017-03-29T07:51:05.509Z,1020.78
2017-03-29T07:51:31.046Z,1020.75
2017-03-29T07:51:56.592Z,1020.76
2017-03-29T07:52:22.147Z,1020.81
2017-03-29T07:52:47.679Z,1020.85
2017-03-29T07:53:13.271Z,1020.82
2017-03-29T07:53:38.839Z,1020.8
2017-03-29T07:54:04.439Z,1020.77
2017-03-29T07:54:29.985Z,1020.75
2017-03-29T07:54:55.562Z,1020.74
2017-03-29T07:55:21.124Z,1020.78
2017-03-29T07:55:46.690Z,1020.78
2017-03-29T07:56:12.280Z,1020.77
2017-03-29T07:56:37.927Z,1020.78
2017-03-29T07:57:03.537Z,1020.77
2017-03-29T07:57:29.108Z,1020.78
2017-03-29T07:57:54.661Z,1020.83
2017-03-29T07:58:20.437Z,1020.79
2017-03-29T07:58:46.054Z,1020.88
2017-03-29T07:59:11.601Z,1020.88
2017-03-29T07:59:37.177Z,1020.85
2017-03-29T08:00:02.722Z,1020.91
2017-03-29T08:00:28.286Z,1020.92
2017-03-29T08:00:53.956Z,1020.95
2017-03-29T08:01:19.538Z,1020.93
2017-03-29T08:01:45.137Z,1020.95
2017-03-29T08:02:10.684Z,1020.94
2017-03-29T08:02:36.244Z,1020.97
2017-03-29T08:03:01.808Z,1020.95
2017-03-29T08:03:27.357Z,1020.98
2017-03-29T08:03:52.926Z,1021.01
2017-03-29T08:04:18.498Z,1020.95
2017-03-29T08:04:44.060Z,1020.95
2017-03-29T08:05:09.647Z,1020.98
2017-03-29T08:05:35.196Z,1020.97
2017-03-29T08:06:00.749Z,1020.98
2017-03-29T08:06:26.324Z,1020.96
2017-03-29T08:06:51.980Z,1021.01
2017-03-29T08:07:17.540Z,1021.03
2017-03-29T08:07:43.092Z,1021.02
2017-03-29T08:08:08.637Z,1021.02
2017-03-29T08:08:34.193Z,1021.01
2017-03-29T08:08:59.815Z,1020.99
2017-03-29T08:09:25.392Z,1020.95
2017-03-29T08:09:50.968Z,1020.99
2017-03-29T08:10:16.541Z,1020.99
2017-03-29T08:10:42.103Z,1021.02
2017-03-29T08:11:07.656Z,1020.99
2017-03-29T08:11:33.217Z,1020.99
2017-03-29T08:11:58.886Z,1021
2017-03-29T08:12:24.456Z,1021
2017-03-29T08:12:49.996Z,1020.94
2017-03-29T08:13:15.732Z,1020.91
2017-03-29T08:13:41.293Z,1020.88
2017-03-29T08:14:06.841Z,1020.92
2017-03-29T08:14:32.398Z,1020.92
2017-03-29T08:14:57.960Z,1020.97
2017-03-29T08:15:23.530Z,1020.91
2017-03-29T08:15:49.084Z,1020.92
2017-03-29T08:16:14.722Z,1020.94
2017-03-29T08:16:40.253Z,1020.96
2017-03-29T08:17:05.816Z,1020.94